sensor_id;sensor_type;location;lat;lon;timestamp;temperature;humidity
31809;DHT22;18379;48.208;-1.518;2024-01-11T00:00:53;-0.20;99.90
31809;DHT22;18379;48.208;-1.518;2024-01-11T00:05:54;-0.20;99.90
31809;DHT22;18379;48.208;-1.518;2024-01-11T00:10:54;-0.20;99.90
31809;DHT22;18379;48.208;-1.518;2024-01-11T00:15:55;-0.20;99.90
31809;DHT22;18379;48.208;-1.518;2024-01-11T00:20:55;-0.30;99.90
31809;DHT22;18379;48.208;-1.518;2024-01-11T00:25:56;-0.40;99.90
31809;DHT22;18379;48.208;-1.518;2024-01-11T00:30:57;-0.30;99.90
31809;DHT22;18379;48.208;-1.518;2024-01-11T00:35:58;-0.40;99.90
31809;DHT22;18379;48.208;-1.518;2024-01-11T00:40:59;-0.50;99.90
31809;DHT22;18379;48.208;-1.518;2024-01-11T00:46:00;-0.50;99.90
31809;DHT22;18379;48.208;-1.518;2024-01-11T00:51:00;-0.50;99.90
31809;DHT22;18379;48.208;-1.518;2024-01-11T00:56:01;-0.60;99.90
31809;DHT22;18379;48.208;-1.518;2024-01-11T01:01:02;-0.80;99.90
31809;DHT22;18379;48.208;-1.518;2024-01-11T01:06:03;-0.90;99.90
31809;DHT22;18379;48.208;-1.518;2024-01-11T01:11:03;-1.00;99.90
31809;DHT22;18379;48.208;-1.518;2024-01-11T01:16:04;-1.10;99.90
31809;DHT22;18379;48.208;-1.518;2024-01-11T01:21:05;-1.10;99.90
31809;DHT22;18379;48.208;-1.518;2024-01-11T01:26:07;-1.10;99.90
31809;DHT22;18379;48.208;-1.518;2024-01-11T01:31:08;-1.10;99.90
31809;DHT22;18379;48.208;-1.518;2024-01-11T01:36:10;-1.00;99.90
31809;DHT22;18379;48.208;-1.518;2024-01-11T01:41:10;-1.10;99.90
31809;DHT22;18379;48.208;-1.518;2024-01-11T01:46:11;-1.20;99.90
31809;DHT22;18379;48.208;-1.518;2024-01-11T01:51:15;-1.30;99.90
31809;DHT22;18379;48.208;-1.518;2024-01-11T01:56:17;-1.40;99.90
31809;DHT22;18379;48.208;-1.518;2024-01-11T02:01:19;-1.50;99.90
31809;DHT22;18379;48.208;-1.518;2024-01-11T02:06:23;-1.60;99.90
31809;DHT22;18379;48.208;-1.518;2024-01-11T02:11:25;-1.60;99.90
31809;DHT22;18379;48.208;-1.518;2024-01-11T02:16:27;-1.60;99.90
31809;DHT22;18379;48.208;-1.518;2024-01-11T02:21:28;-1.70;99.90
31809;DHT22;18379;48.208;-1.518;2024-01-11T02:26:29;-1.80;99.90
31809;DHT22;18379;48.208;-1.518;2024-01-11T02:31:30;-1.80;99.90
31809;DHT22;18379;48.208;-1.518;2024-01-11T02:36:31;-1.80;99.90
31809;DHT22;18379;48.208;-1.518;2024-01-11T02:41:32;-1.80;99.90
31809;DHT22;18379;48.208;-1.518;2024-01-11T02:46:33;-1.90;99.90
31809;DHT22;18379;48.208;-1.518;2024-01-11T02:51:33;-1.90;99.90
31809;DHT22;18379;48.208;-1.518;2024-01-11T02:56:34;-1.80;99.90
31809;DHT22;18379;48.208;-1.518;2024-01-11T03:01:35;-1.80;99.90
31809;DHT22;18379;48.208;-1.518;2024-01-11T03:06:36;-1.90;99.90
31809;DHT22;18379;48.208;-1.518;2024-01-11T03:11:36;-1.90;99.90
31809;DHT22;18379;48.208;-1.518;2024-01-11T03:16:38;-1.90;99.90
31809;DHT22;18379;48.208;-1.518;2024-01-11T03:21:46;-1.80;99.90
31809;DHT22;18379;48.208;-1.518;2024-01-11T03:26:47;-1.70;99.90
31809;DHT22;18379;48.208;-1.518;2024-01-11T03:31:48;-1.70;99.90
31809;DHT22;18379;48.208;-1.518;2024-01-11T03:36:49;-1.70;99.90
31809;DHT22;18379;48.208;-1.518;2024-01-11T03:41:50;-1.70;99.90
31809;DHT22;18379;48.208;-1.518;2024-01-11T03:46:50;-1.70;99.90
31809;DHT22;18379;48.208;-1.518;2024-01-11T03:51:52;-1.70;99.90
31809;DHT22;18379;48.208;-1.518;2024-01-11T03:56:52;-1.80;99.90
31809;DHT22;18379;48.208;-1.518;2024-01-11T04:01:53;-1.80;99.90
31809;DHT22;18379;48.208;-1.518;2024-01-11T04:06:54;-1.90;99.90
31809;DHT22;18379;48.208;-1.518;2024-01-11T04:11:54;-2.00;99.90
31809;DHT22;18379;48.208;-1.518;2024-01-11T04:16:55;-1.90;99.90
31809;DHT22;18379;48.208;-1.518;2024-01-11T04:21:56;-1.90;99.90
31809;DHT22;18379;48.208;-1.518;2024-01-11T04:26:56;-1.90;99.90
31809;DHT22;18379;48.208;-1.518;2024-01-11T04:31:57;-1.90;99.90
31809;DHT22;18379;48.208;-1.518;2024-01-11T04:36:58;-1.90;99.90
31809;DHT22;18379;48.208;-1.518;2024-01-11T04:41:59;-2.00;99.90
31809;DHT22;18379;48.208;-1.518;2024-01-11T04:47:01;-1.90;99.90
31809;DHT22;18379;48.208;-1.518;2024-01-11T04:52:01;-1.90;99.90
31809;DHT22;18379;48.208;-1.518;2024-01-11T04:57:02;-2.00;99.90
31809;DHT22;18379;48.208;-1.518;2024-01-11T05:02:03;-1.90;99.90
31809;DHT22;18379;48.208;-1.518;2024-01-11T05:07:04;-1.90;99.90
31809;DHT22;18379;48.208;-1.518;2024-01-11T05:12:05;-1.90;99.90
31809;DHT22;18379;48.208;-1.518;2024-01-11T05:17:05;-1.80;99.90
31809;DHT22;18379;48.208;-1.518;2024-01-11T05:22:06;-1.70;99.90
31809;DHT22;18379;48.208;-1.518;2024-01-11T05:27:07;-1.60;99.90
31809;DHT22;18379;48.208;-1.518;2024-01-11T05:32:07;-1.50;99.90
31809;DHT22;18379;48.208;-1.518;2024-01-11T05:37:08;-1.50;99.90
31809;DHT22;18379;48.208;-1.518;2024-01-11T05:42:09;-1.50;99.90
31809;DHT22;18379;48.208;-1.518;2024-01-11T05:47:09;-1.50;99.90
31809;DHT22;18379;48.208;-1.518;2024-01-11T05:52:10;-1.60;99.90
31809;DHT22;18379;48.208;-1.518;2024-01-11T05:57:10;-1.60;99.90
31809;DHT22;18379;48.208;-1.518;2024-01-11T06:02:12;-1.50;99.90
31809;DHT22;18379;48.208;-1.518;2024-01-11T06:07:13;-1.50;99.90
31809;DHT22;18379;48.208;-1.518;2024-01-11T06:12:13;-1.60;99.90
31809;DHT22;18379;48.208;-1.518;2024-01-11T06:17:14;-1.50;99.90
31809;DHT22;18379;48.208;-1.518;2024-01-11T06:22:15;-1.50;99.90
31809;DHT22;18379;48.208;-1.518;2024-01-11T06:27:16;-1.40;99.90
31809;DHT22;18379;48.208;-1.518;2024-01-11T06:32:16;-1.50;99.90
31809;DHT22;18379;48.208;-1.518;2024-01-11T06:37:17;-1.50;99.90
31809;DHT22;18379;48.208;-1.518;2024-01-11T06:42:17;-1.50;99.90
31809;DHT22;18379;48.208;-1.518;2024-01-11T06:47:18;-1.50;99.90
31809;DHT22;18379;48.208;-1.518;2024-01-11T06:52:19;-1.50;99.90
31809;DHT22;18379;48.208;-1.518;2024-01-11T06:57:20;-1.50;99.90
31809;DHT22;18379;48.208;-1.518;2024-01-11T07:02:20;-1.50;99.90
31809;DHT22;18379;48.208;-1.518;2024-01-11T07:07:21;-1.40;99.90
31809;DHT22;18379;48.208;-1.518;2024-01-11T07:12:21;-1.30;99.90
31809;DHT22;18379;48.208;-1.518;2024-01-11T07:17:22;-1.20;99.90
31809;DHT22;18379;48.208;-1.518;2024-01-11T07:22:24;-1.10;99.90
31809;DHT22;18379;48.208;-1.518;2024-01-11T07:27:24;-1.00;99.90
31809;DHT22;18379;48.208;-1.518;2024-01-11T07:32:25;-0.80;99.90
31809;DHT22;18379;48.208;-1.518;2024-01-11T07:37:27;-0.90;99.90
31809;DHT22;18379;48.208;-1.518;2024-01-11T07:42:28;-0.90;99.90
31809;DHT22;18379;48.208;-1.518;2024-01-11T07:47:28;-0.90;99.90
31809;DHT22;18379;48.208;-1.518;2024-01-11T07:52:29;-0.80;99.90
31809;DHT22;18379;48.208;-1.518;2024-01-11T07:57:30;-0.90;99.90
31809;DHT22;18379;48.208;-1.518;2024-01-11T08:02:30;-0.90;99.90
31809;DHT22;18379;48.208;-1.518;2024-01-11T08:07:31;-0.90;99.90
31809;DHT22;18379;48.208;-1.518;2024-01-11T08:12:32;-0.80;99.90
31809;DHT22;18379;48.208;-1.518;2024-01-11T08:17:32;-0.80;99.90
31809;DHT22;18379;48.208;-1.518;2024-01-11T08:22:33;-0.80;99.90
31809;DHT22;18379;48.208;-1.518;2024-01-11T08:27:36;-0.70;99.90
31809;DHT22;18379;48.208;-1.518;2024-01-11T08:32:36;-0.50;99.90
31809;DHT22;18379;48.208;-1.518;2024-01-11T08:37:39;-0.60;99.90
31809;DHT22;18379;48.208;-1.518;2024-01-11T08:42:40;-0.70;99.90
31809;DHT22;18379;48.208;-1.518;2024-01-11T08:47:41;-0.80;99.90
31809;DHT22;18379;48.208;-1.518;2024-01-11T08:52:42;-0.70;99.90
31809;DHT22;18379;48.208;-1.518;2024-01-11T08:57:43;-0.70;99.90
31809;DHT22;18379;48.208;-1.518;2024-01-11T09:02:44;-0.60;99.90
31809;DHT22;18379;48.208;-1.518;2024-01-11T09:07:45;-0.50;99.90
31809;DHT22;18379;48.208;-1.518;2024-01-11T09:12:45;-0.50;99.90
31809;DHT22;18379;48.208;-1.518;2024-01-11T09:17:47;-0.40;99.90
31809;DHT22;18379;48.208;-1.518;2024-01-11T09:22:48;-0.40;99.90
31809;DHT22;18379;48.208;-1.518;2024-01-11T09:27:49;-0.20;99.90
31809;DHT22;18379;48.208;-1.518;2024-01-11T09:32:50;-0.20;99.90
31809;DHT22;18379;48.208;-1.518;2024-01-11T09:37:51;-0.20;99.90
31809;DHT22;18379;48.208;-1.518;2024-01-11T09:42:52;-0.30;99.90
31809;DHT22;18379;48.208;-1.518;2024-01-11T09:47:53;-0.30;99.90
31809;DHT22;18379;48.208;-1.518;2024-01-11T09:52:54;-0.20;99.90
31809;DHT22;18379;48.208;-1.518;2024-01-11T09:57:57;0.10;99.90
31809;DHT22;18379;48.208;-1.518;2024-01-11T10:03:00;0.30;99.90
31809;DHT22;18379;48.208;-1.518;2024-01-11T10:08:00;0.70;99.90
31809;DHT22;18379;48.208;-1.518;2024-01-11T10:13:01;0.80;99.90
31809;DHT22;18379;48.208;-1.518;2024-01-11T10:18:02;0.90;99.90
31809;DHT22;18379;48.208;-1.518;2024-01-11T10:23:03;1.10;99.90
31809;DHT22;18379;48.208;-1.518;2024-01-11T10:28:07;1.30;99.90
31809;DHT22;18379;48.208;-1.518;2024-01-11T10:33:07;1.50;99.90
31809;DHT22;18379;48.208;-1.518;2024-01-11T10:38:09;1.80;99.90
31809;DHT22;18379;48.208;-1.518;2024-01-11T10:43:11;2.00;99.90
31809;DHT22;18379;48.208;-1.518;2024-01-11T10:48:13;2.20;99.90
31809;DHT22;18379;48.208;-1.518;2024-01-11T10:58:29;2.60;99.90
31809;DHT22;18379;48.208;-1.518;2024-01-11T11:03:30;2.90;99.90
31809;DHT22;18379;48.208;-1.518;2024-01-11T11:08:33;2.90;99.90
31809;DHT22;18379;48.208;-1.518;2024-01-11T11:13:34;3.10;99.90
31809;DHT22;18379;48.208;-1.518;2024-01-11T11:18:37;3.30;99.90
31809;DHT22;18379;48.208;-1.518;2024-01-11T11:23:38;3.40;99.90
31809;DHT22;18379;48.208;-1.518;2024-01-11T11:28:39;3.70;99.90
31809;DHT22;18379;48.208;-1.518;2024-01-11T11:33:41;3.90;99.90
31809;DHT22;18379;48.208;-1.518;2024-01-11T11:38:41;4.20;99.90
31809;DHT22;18379;48.208;-1.518;2024-01-11T11:43:43;4.50;99.90
31809;DHT22;18379;48.208;-1.518;2024-01-11T11:48:52;4.60;99.90
31809;DHT22;18379;48.208;-1.518;2024-01-11T11:53:53;4.60;99.90
31809;DHT22;18379;48.208;-1.518;2024-01-11T11:58:54;4.80;99.90
31809;DHT22;18379;48.208;-1.518;2024-01-11T12:03:55;5.00;99.90
31809;DHT22;18379;48.208;-1.518;2024-01-11T12:08:56;5.00;99.90
31809;DHT22;18379;48.208;-1.518;2024-01-11T12:13:57;5.20;99.90
31809;DHT22;18379;48.208;-1.518;2024-01-11T12:18:57;5.40;99.90
31809;DHT22;18379;48.208;-1.518;2024-01-11T12:23:58;5.20;99.90
31809;DHT22;18379;48.208;-1.518;2024-01-11T12:28:59;5.30;99.90
31809;DHT22;18379;48.208;-1.518;2024-01-11T12:33:59;5.60;99.90
31809;DHT22;18379;48.208;-1.518;2024-01-11T12:39:02;5.70;99.90
31809;DHT22;18379;48.208;-1.518;2024-01-11T12:44:04;6.00;99.90
31809;DHT22;18379;48.208;-1.518;2024-01-11T12:49:05;6.30;99.90
31809;DHT22;18379;48.208;-1.518;2024-01-11T12:54:11;6.20;99.90
31809;DHT22;18379;48.208;-1.518;2024-01-11T12:59:12;6.00;99.90
31809;DHT22;18379;48.208;-1.518;2024-01-11T13:04:13;5.90;99.90
31809;DHT22;18379;48.208;-1.518;2024-01-11T13:09:14;5.90;99.90
31809;DHT22;18379;48.208;-1.518;2024-01-11T13:14:14;5.90;99.90
31809;DHT22;18379;48.208;-1.518;2024-01-11T13:19:19;6.00;99.90
31809;DHT22;18379;48.208;-1.518;2024-01-11T13:24:19;6.20;99.90
31809;DHT22;18379;48.208;-1.518;2024-01-11T13:29:20;6.30;99.90
31809;DHT22;18379;48.208;-1.518;2024-01-11T13:34:21;6.30;99.90
31809;DHT22;18379;48.208;-1.518;2024-01-11T13:39:21;6.30;99.90
31809;DHT22;18379;48.208;-1.518;2024-01-11T13:44:24;6.50;99.90
31809;DHT22;18379;48.208;-1.518;2024-01-11T13:49:24;6.30;99.90
31809;DHT22;18379;48.208;-1.518;2024-01-11T13:54:25;6.10;99.90
31809;DHT22;18379;48.208;-1.518;2024-01-11T13:59:26;6.20;99.90
31809;DHT22;18379;48.208;-1.518;2024-01-11T14:04:26;6.50;99.90
31809;DHT22;18379;48.208;-1.518;2024-01-11T14:09:27;6.40;99.90
31809;DHT22;18379;48.208;-1.518;2024-01-11T14:14:28;6.30;99.90
31809;DHT22;18379;48.208;-1.518;2024-01-11T14:19:28;6.30;99.90
31809;DHT22;18379;48.208;-1.518;2024-01-11T14:24:29;6.30;99.90
31809;DHT22;18379;48.208;-1.518;2024-01-11T14:29:30;6.30;99.90
31809;DHT22;18379;48.208;-1.518;2024-01-11T14:34:30;6.40;99.90
31809;DHT22;18379;48.208;-1.518;2024-01-11T14:39:31;6.40;99.90
31809;DHT22;18379;48.208;-1.518;2024-01-11T14:44:31;6.50;99.90
31809;DHT22;18379;48.208;-1.518;2024-01-11T14:49:32;6.80;99.90
31809;DHT22;18379;48.208;-1.518;2024-01-11T14:54:33;6.80;99.90
31809;DHT22;18379;48.208;-1.518;2024-01-11T14:59:34;6.90;99.90
31809;DHT22;18379;48.208;-1.518;2024-01-11T15:04:35;6.80;99.90
31809;DHT22;18379;48.208;-1.518;2024-01-11T15:09:36;6.10;99.90
31809;DHT22;18379;48.208;-1.518;2024-01-11T15:14:37;5.70;99.90
31809;DHT22;18379;48.208;-1.518;2024-01-11T15:19:38;5.50;99.90
31809;DHT22;18379;48.208;-1.518;2024-01-11T15:24:40;5.50;99.90
31809;DHT22;18379;48.208;-1.518;2024-01-11T15:29:41;5.40;99.90
31809;DHT22;18379;48.208;-1.518;2024-01-11T15:34:42;5.20;99.90
31809;DHT22;18379;48.208;-1.518;2024-01-11T15:39:43;5.10;99.90
31809;DHT22;18379;48.208;-1.518;2024-01-11T15:44:44;5.00;99.90
31809;DHT22;18379;48.208;-1.518;2024-01-11T15:49:44;4.90;99.90
31809;DHT22;18379;48.208;-1.518;2024-01-11T15:54:46;4.90;99.90
31809;DHT22;18379;48.208;-1.518;2024-01-11T15:59:46;4.90;99.90
31809;DHT22;18379;48.208;-1.518;2024-01-11T16:04:47;4.90;99.90
31809;DHT22;18379;48.208;-1.518;2024-01-11T16:09:47;4.80;99.90
31809;DHT22;18379;48.208;-1.518;2024-01-11T16:14:50;4.60;99.90
31809;DHT22;18379;48.208;-1.518;2024-01-11T16:19:51;4.50;99.90
31809;DHT22;18379;48.208;-1.518;2024-01-11T16:24:52;4.40;99.90
31809;DHT22;18379;48.208;-1.518;2024-01-11T16:29:53;4.30;99.90
31809;DHT22;18379;48.208;-1.518;2024-01-11T16:34:54;4.20;99.90
31809;DHT22;18379;48.208;-1.518;2024-01-11T16:39:54;4.20;99.90
31809;DHT22;18379;48.208;-1.518;2024-01-11T16:44:55;4.10;99.90
31809;DHT22;18379;48.208;-1.518;2024-01-11T16:49:55;4.00;99.90
31809;DHT22;18379;48.208;-1.518;2024-01-11T16:54:57;3.80;99.90
31809;DHT22;18379;48.208;-1.518;2024-01-11T16:59:57;3.80;99.90
31809;DHT22;18379;48.208;-1.518;2024-01-11T17:04:58;3.70;99.90
31809;DHT22;18379;48.208;-1.518;2024-01-11T17:09:59;3.60;99.90
31809;DHT22;18379;48.208;-1.518;2024-01-11T17:14:59;3.50;99.90
31809;DHT22;18379;48.208;-1.518;2024-01-11T17:20:00;3.40;99.90
31809;DHT22;18379;48.208;-1.518;2024-01-11T17:25:00;3.40;99.90
31809;DHT22;18379;48.208;-1.518;2024-01-11T17:30:01;3.30;99.90
31809;DHT22;18379;48.208;-1.518;2024-01-11T17:35:02;3.30;99.90
31809;DHT22;18379;48.208;-1.518;2024-01-11T17:40:05;3.30;99.90
31809;DHT22;18379;48.208;-1.518;2024-01-11T17:45:06;3.20;99.90
31809;DHT22;18379;48.208;-1.518;2024-01-11T17:50:07;3.10;99.90
31809;DHT22;18379;48.208;-1.518;2024-01-11T17:55:08;3.10;99.90
31809;DHT22;18379;48.208;-1.518;2024-01-11T18:00:09;3.10;99.90
31809;DHT22;18379;48.208;-1.518;2024-01-11T18:05:10;3.10;99.90
31809;DHT22;18379;48.208;-1.518;2024-01-11T18:10:11;3.10;99.90
31809;DHT22;18379;48.208;-1.518;2024-01-11T18:15:12;3.10;99.90
31809;DHT22;18379;48.208;-1.518;2024-01-11T18:20:12;3.00;99.90
31809;DHT22;18379;48.208;-1.518;2024-01-11T18:25:16;3.00;99.90
31809;DHT22;18379;48.208;-1.518;2024-01-11T18:30:17;3.10;99.90
31809;DHT22;18379;48.208;-1.518;2024-01-11T18:35:17;3.10;99.90
31809;DHT22;18379;48.208;-1.518;2024-01-11T18:40:18;3.10;99.90
31809;DHT22;18379;48.208;-1.518;2024-01-11T18:45:19;3.00;99.90
31809;DHT22;18379;48.208;-1.518;2024-01-11T18:50:19;3.00;99.90
31809;DHT22;18379;48.208;-1.518;2024-01-11T18:55:20;3.00;99.90
31809;DHT22;18379;48.208;-1.518;2024-01-11T19:00:21;3.00;99.90
31809;DHT22;18379;48.208;-1.518;2024-01-11T19:05:22;3.00;99.90
31809;DHT22;18379;48.208;-1.518;2024-01-11T19:10:24;3.00;99.90
31809;DHT22;18379;48.208;-1.518;2024-01-11T19:15:24;3.00;99.90
31809;DHT22;18379;48.208;-1.518;2024-01-11T19:20:25;2.90;99.90
31809;DHT22;18379;48.208;-1.518;2024-01-11T19:25:32;2.90;99.90
31809;DHT22;18379;48.208;-1.518;2024-01-11T19:30:34;2.90;99.90
31809;DHT22;18379;48.208;-1.518;2024-01-11T19:35:34;2.80;99.90
31809;DHT22;18379;48.208;-1.518;2024-01-11T19:40:35;2.90;99.90
31809;DHT22;18379;48.208;-1.518;2024-01-11T19:45:36;2.90;99.90
31809;DHT22;18379;48.208;-1.518;2024-01-11T19:50:36;2.80;99.90
31809;DHT22;18379;48.208;-1.518;2024-01-11T19:55:37;2.80;99.90
31809;DHT22;18379;48.208;-1.518;2024-01-11T20:00:40;2.80;99.90
31809;DHT22;18379;48.208;-1.518;2024-01-11T20:05:41;2.70;99.90
31809;DHT22;18379;48.208;-1.518;2024-01-11T20:10:42;2.70;99.90
31809;DHT22;18379;48.208;-1.518;2024-01-11T20:15:43;2.70;99.90
31809;DHT22;18379;48.208;-1.518;2024-01-11T20:20:44;2.60;99.90
31809;DHT22;18379;48.208;-1.518;2024-01-11T20:25:45;2.60;99.90
31809;DHT22;18379;48.208;-1.518;2024-01-11T20:30:47;2.60;99.90
31809;DHT22;18379;48.208;-1.518;2024-01-11T20:35:48;2.60;99.90
31809;DHT22;18379;48.208;-1.518;2024-01-11T20:40:49;2.60;99.90
31809;DHT22;18379;48.208;-1.518;2024-01-11T20:45:49;2.50;99.90
31809;DHT22;18379;48.208;-1.518;2024-01-11T20:50:52;2.50;99.90
31809;DHT22;18379;48.208;-1.518;2024-01-11T20:55:52;2.40;99.90
31809;DHT22;18379;48.208;-1.518;2024-01-11T21:00:53;2.40;99.90
31809;DHT22;18379;48.208;-1.518;2024-01-11T21:05:54;2.40;99.90
31809;DHT22;18379;48.208;-1.518;2024-01-11T21:10:56;2.40;99.90
31809;DHT22;18379;48.208;-1.518;2024-01-11T21:15:57;2.30;99.90
31809;DHT22;18379;48.208;-1.518;2024-01-11T21:20:58;2.40;99.90
31809;DHT22;18379;48.208;-1.518;2024-01-11T21:25:59;2.40;99.90
31809;DHT22;18379;48.208;-1.518;2024-01-11T21:31:00;2.40;99.90
31809;DHT22;18379;48.208;-1.518;2024-01-11T21:36:00;2.40;99.90
31809;DHT22;18379;48.208;-1.518;2024-01-11T21:41:01;2.30;99.90
31809;DHT22;18379;48.208;-1.518;2024-01-11T21:46:02;2.30;99.90
31809;DHT22;18379;48.208;-1.518;2024-01-11T21:51:07;2.30;99.90
31809;DHT22;18379;48.208;-1.518;2024-01-11T21:56:08;2.30;99.90
31809;DHT22;18379;48.208;-1.518;2024-01-11T22:01:08;2.30;99.90
31809;DHT22;18379;48.208;-1.518;2024-01-11T22:06:09;2.30;99.90
31809;DHT22;18379;48.208;-1.518;2024-01-11T22:11:10;2.30;99.90
31809;DHT22;18379;48.208;-1.518;2024-01-11T22:16:13;2.30;99.90
31809;DHT22;18379;48.208;-1.518;2024-01-11T22:21:13;2.30;99.90
31809;DHT22;18379;48.208;-1.518;2024-01-11T22:26:21;2.30;99.90
31809;DHT22;18379;48.208;-1.518;2024-01-11T22:31:22;2.40;99.90
31809;DHT22;18379;48.208;-1.518;2024-01-11T22:36:25;2.40;99.90
31809;DHT22;18379;48.208;-1.518;2024-01-11T22:41:26;2.40;99.90
31809;DHT22;18379;48.208;-1.518;2024-01-11T22:46:30;2.40;99.90
31809;DHT22;18379;48.208;-1.518;2024-01-11T22:51:31;2.40;99.90
31809;DHT22;18379;48.208;-1.518;2024-01-11T22:56:32;2.40;99.90
31809;DHT22;18379;48.208;-1.518;2024-01-11T23:01:36;2.40;99.90
31809;DHT22;18379;48.208;-1.518;2024-01-11T23:06:36;2.40;99.90
31809;DHT22;18379;48.208;-1.518;2024-01-11T23:11:37;2.40;99.90
31809;DHT22;18379;48.208;-1.518;2024-01-11T23:16:40;2.50;99.90
31809;DHT22;18379;48.208;-1.518;2024-01-11T23:21:43;2.40;99.90
31809;DHT22;18379;48.208;-1.518;2024-01-11T23:26:44;2.40;99.90
31809;DHT22;18379;48.208;-1.518;2024-01-11T23:31:45;2.30;99.90
31809;DHT22;18379;48.208;-1.518;2024-01-11T23:36:45;2.40;99.90
31809;DHT22;18379;48.208;-1.518;2024-01-11T23:41:48;2.40;99.90
31809;DHT22;18379;48.208;-1.518;2024-01-11T23:46:49;2.30;99.90
31809;DHT22;18379;48.208;-1.518;2024-01-11T23:51:50;2.30;99.90
31809;DHT22;18379;48.208;-1.518;2024-01-11T23:56:50;2.30;99.90
